Time;durP1;ratioP1;P1;durP2;ratioP2;P2;SDS_P1;SDS_P2;PMS_P1;PMS_P2;Temp;Humidity;BMP_temperature;BMP_pressure;BME280_temperature;BME280_humidity;BME280_pressure;Samples;Min_cycle;Max_cycle;Signal;HPM_P1;HPM_P2
2022/04/11 00:36:25;;;;;;;;;;;5.70;81.30;;;;;;5111110;27;19912;-87
2022/04/11 01:15:24;;;;;;;;;;;5.70;81.60;;;;;;5111102;27;19918;-88
2022/04/11 01:18:59;;;;;;;;;;;5.40;82.80;;;;;;5111100;27;20378;-88
2022/04/11 01:21:28;;;;;;;;;;;4.70;83.30;;;;;;5111021;28;19918;-87
2022/04/11 01:23:53;;;;;;;;;;;4.60;84.90;;;;;;5111005;28;19915;-87
2022/04/11 01:26:20;;;;;;;;;;;4.70;85.50;;;;;;5110883;28;19908;-87
2022/04/11 01:28:47;;;;;;;;;;;4.60;85.30;;;;;;5110905;28;20439;-87
2022/04/11 01:31:12;;;;;;;;;;;4.50;85.90;;;;;;5110826;28;19930;-88
2022/04/11 01:33:38;;;;;;;;;;;4.50;85.90;;;;;;5110076;28;20281;-87
2022/04/11 01:59:17;;;;;;;;;;;4.50;85.20;;;;;;5111073;27;19912;-88
2022/04/11 02:01:43;;;;;;;;;;;5.10;80.20;;;;;;5110702;28;20429;-88
2022/04/11 02:04:09;;;;;;;;;;;5.00;80.20;;;;;;5111132;28;20357;-88
2022/04/11 02:06:35;;;;;;;;;;;4.70;79.50;;;;;;5110948;28;20290;-88
2022/04/11 02:09:00;;;;;;;;;;;4.60;80.50;;;;;;5105141;28;19914;-88
2022/04/11 02:11:26;;;;;;;;;;;4.70;81.40;;;;;;5090466;28;19909;-88
2022/04/11 02:25:50;;;;;;;;;;;4.80;81.80;;;;;;5152305;27;19912;-88
2022/04/11 02:30:42;;;;;;;;;;;4.80;82.00;;;;;;5007395;28;19914;-88
2022/04/11 02:33:08;;;;;;;;;;;4.40;82.10;;;;;;5007127;28;19920;-88
2022/04/11 02:35:33;;;;;;;;;;;4.40;82.60;;;;;;5007393;28;20001;-88
2022/04/11 02:37:59;;;;;;;;;;;4.50;82.30;;;;;;5007407;28;19916;-89
2022/04/11 02:40:24;;;;;;;;;;;4.50;81.90;;;;;;5007336;28;20339;-88
2022/04/11 02:42:50;;;;;;;;;;;4.50;82.20;;;;;;5007359;28;19955;-88
2022/04/11 02:45:16;;;;;;;;;;;4.60;82.50;;;;;;5006765;28;20391;-88
2022/04/11 02:47:42;;;;;;;;;;;4.70;83.90;;;;;;5006299;28;19913;-88
2022/04/11 02:50:08;;;;;;;;;;;4.50;84.20;;;;;;5007045;28;19925;-87
2022/04/11 02:52:34;;;;;;;;;;;4.60;85.60;;;;;;5007101;28;19910;-88
2022/04/11 02:55:00;;;;;;;;;;;4.70;85.60;;;;;;5006943;28;19917;-87
2022/04/11 02:57:25;;;;;;;;;;;4.70;84.70;;;;;;5006919;28;19953;-88
2022/04/11 02:59:51;;;;;;;;;;;4.70;84.20;;;;;;5006467;28;19990;-87
2022/04/11 03:02:17;;;;;;;;;;;4.70;84.40;;;;;;5006707;28;19914;-87
2022/04/11 03:04:42;;;;;;;;;;;4.90;83.80;;;;;;5006437;28;19914;-88
2022/04/11 03:07:08;;;;;;;;;;;4.90;83.30;;;;;;5005993;28;20356;-88
2022/04/11 03:09:34;;;;;;;;;;;5.00;82.70;;;;;;5005431;28;19914;-88
2022/04/11 03:11:59;;;;;;;;;;;4.80;81.50;;;;;;5006833;28;20314;-87
2022/04/11 03:14:25;;;;;;;;;;;4.30;80.50;;;;;;5007064;28;19925;-88
2022/04/11 03:16:50;;;;;;;;;;;4.10;82.10;;;;;;5006764;28;20283;-88
2022/04/11 03:19:16;;;;;;;;;;;4.20;83.50;;;;;;5006687;28;19933;-87
2022/04/11 03:21:42;;;;;;;;;;;4.40;84.30;;;;;;5006648;28;20054;-87
2022/04/11 03:24:07;;;;;;;;;;;4.70;84.10;;;;;;5006597;28;20012;-88
2022/04/11 03:26:33;;;;;;;;;;;5.00;82.70;;;;;;5006619;28;20351;-87
2022/04/11 03:28:59;;;;;;;;;;;5.10;81.30;;;;;;5006382;28;20431;-88
2022/04/11 03:31:24;;;;;;;;;;;5.00;79.60;;;;;;5006043;28;20000;-88
2022/04/11 03:33:50;;;;;;;;;;;4.50;80.50;;;;;;4986807;28;19997;-88
2022/04/11 03:36:15;;;;;;;;;;;4.40;81.00;;;;;;4986970;28;19910;-89
2022/04/11 03:38:41;;;;;;;;;;;4.50;81.30;;;;;;4998535;28;19959;-89
2022/04/11 03:41:07;;;;;;;;;;;4.60;81.10;;;;;;4998446;28;19997;-89
2022/04/11 03:44:35;;;;;;;;;;;4.60;81.20;;;;;;5110993;27;20285;-87
2022/04/11 03:47:00;;;;;;;;;;;4.70;80.90;;;;;;5110965;28;19934;-87
2022/04/11 03:49:26;;;;;;;;;;;4.80;80.20;;;;;;5110931;28;20373;-87
2022/04/11 04:30:24;;;;;;;;;;;4.90;80.10;;;;;;5109647;27;19916;-87
2022/04/11 04:32:50;;;;;;;;;;;4.90;79.20;;;;;;5103293;28;19919;-87
2022/04/11 04:35:16;;;;;;;;;;;4.60;80.60;;;;;;5088468;28;19948;-87
2022/04/11 04:39:40;;;;;;;;;;;4.50;81.70;;;;;;5110854;27;20373;-87
2022/04/11 04:42:06;;;;;;;;;;;4.30;82.90;;;;;;5111043;28;20011;-88
2022/04/11 04:46:08;;;;;;;;;;;4.40;82.80;;;;;;5109810;27;19930;-88
2022/04/11 04:48:34;;;;;;;;;;;4.30;83.20;;;;;;5099118;28;20300;-89
2022/04/11 04:50:59;;;;;;;;;;;4.30;83.30;;;;;;5103632;28;19912;-88
2022/04/11 04:53:25;;;;;;;;;;;4.40;83.50;;;;;;5094277;28;19920;-88
2022/04/11 04:55:50;;;;;;;;;;;4.60;83.20;;;;;;5097677;28;19919;-87
2022/04/11 04:58:16;;;;;;;;;;;4.50;82.50;;;;;;5089519;28;19912;-88
2022/04/11 05:00:41;;;;;;;;;;;4.30;82.90;;;;;;5089006;28;19913;-88
2022/04/11 05:17:08;;;;;;;;;;;4.40;84.00;;;;;;5110997;27;19919;-87
2022/04/11 05:23:20;;;;;;;;;;;5.00;80.80;;;;;;5109774;27;19924;-87
2022/04/11 05:25:46;;;;;;;;;;;5.20;80.80;;;;;;5095578;28;19912;-87
2022/04/11 05:28:12;;;;;;;;;;;5.40;81.10;;;;;;5077201;28;19913;-87
2022/04/11 05:30:37;;;;;;;;;;;5.50;80.50;;;;;;5084042;28;20354;-87
2022/04/11 05:33:03;;;;;;;;;;;5.70;79.00;;;;;;5094926;28;20457;-87
2022/04/11 05:35:28;;;;;;;;;;;5.90;77.70;;;;;;5088542;28;20007;-86
2022/04/11 05:38:38;;;;;;;;;;;6.00;77.40;;;;;;5101653;27;19925;-87
2022/04/11 05:41:04;;;;;;;;;;;6.00;77.80;;;;;;5095456;28;19912;-87
2022/04/11 05:54:26;;;;;;;;;;;6.00;77.50;;;;;;5101975;27;20392;-89
2022/04/11 06:13:17;;;;;;;;;;;6.80;76.00;;;;;;5078374;27;2031015;-88
2022/04/11 06:15:42;;;;;;;;;;;8.70;70.70;;;;;;5143261;27;20375;-88
2022/04/11 06:18:45;;;;;;;;;;;9.00;69.40;;;;;;5126253;27;19912;-87
2022/04/11 06:21:11;;;;;;;;;;;9.10;69.50;;;;;;5107543;28;19919;-87
2022/04/11 06:24:03;;;;;;;;;;;9.00;68.20;;;;;;5111048;27;20312;-89
2022/04/11 06:30:45;;;;;;;;;;;9.00;68.90;;;;;;5109079;27;19920;-89
2022/04/11 06:33:39;;;;;;;;;;;9.00;69.10;;;;;;5108429;27;19922;-88
2022/04/11 06:36:04;;;;;;;;;;;9.00;69.40;;;;;;5095023;28;19912;-88
2022/04/11 06:38:30;;;;;;;;;;;9.00;69.30;;;;;;5094086;28;19956;-88
2022/04/11 06:40:56;;;;;;;;;;;9.10;69.10;;;;;;5093347;28;19912;-87
2022/04/11 06:44:38;;;;;;;;;;;9.20;69.00;;;;;;5109522;27;19917;-87
2022/04/11 06:47:04;;;;;;;;;;;9.20;68.60;;;;;;5101027;28;19912;-87
2022/04/11 06:55:35;;;;;;;;;;;9.20;68.70;;;;;;5076384;28;19923;-87
2022/04/11 06:58:01;;;;;;;;;;;9.50;67.10;;;;;;5069854;28;19928;-88
2022/04/11 07:00:27;;;;;;;;;;;9.60;67.10;;;;;;5069244;28;19919;-89
2022/04/11 07:04:38;;;;;;;;;;;9.60;66.80;;;;;;5110587;27;19924;-87
2022/04/11 07:07:04;;;;;;;;;;;9.70;67.50;;;;;;5100111;28;19985;-87
2022/04/11 07:09:31;;;;;;;;;;;9.80;68.30;;;;;;5107113;28;19916;-87
2022/04/11 07:11:56;;;;;;;;;;;9.90;67.40;;;;;;5107003;28;19912;-87
2022/04/11 07:14:22;;;;;;;;;;;10.10;66.70;;;;;;5097945;28;19919;-87
2022/04/11 07:16:49;;;;;;;;;;;10.20;66.10;;;;;;5098203;28;19912;-88
2022/04/11 07:19:15;;;;;;;;;;;10.30;66.20;;;;;;5095134;28;19946;-87
2022/04/11 07:28:22;;;;;;;;;;;10.40;66.50;;;;;;5109685;27;19916;-88
2022/04/11 07:30:48;;;;;;;;;;;10.60;68.00;;;;;;5101015;28;19912;-87
2022/04/11 07:33:14;;;;;;;;;;;10.60;67.00;;;;;;5110334;28;20350;-87
2022/04/11 07:35:39;;;;;;;;;;;10.60;66.90;;;;;;5104161;28;19934;-87
2022/04/11 07:38:05;;;;;;;;;;;10.60;66.90;;;;;;5106282;28;19962;-87
2022/04/11 07:40:31;;;;;;;;;;;10.70;67.10;;;;;;5106875;28;20002;-87
2022/04/11 07:42:56;;;;;;;;;;;10.80;67.70;;;;;;5110607;28;19912;-87
2022/04/11 07:45:22;;;;;;;;;;;10.90;68.00;;;;;;5110537;28;19908;-87
2022/04/11 07:47:48;;;;;;;;;;;11.10;67.50;;;;;;5103955;28;19913;-88
2022/04/11 07:50:14;;;;;;;;;;;11.10;67.70;;;;;;5095548;28;19912;-88
2022/04/11 07:52:40;;;;;;;;;;;11.20;67.70;;;;;;5107977;28;19919;-88
2022/04/11 07:55:07;;;;;;;;;;;11.40;67.40;;;;;;5120598;28;19964;-89
2022/04/11 08:03:04;;;;;;;;;;;11.50;67.20;;;;;;5093600;27;2036631;-87
2022/04/11 08:13:54;;;;;;;;;;;11.70;69.60;;;;;;5099671;27;2096971;-89
2022/04/11 08:16:20;;;;;;;;;;;11.80;70.00;;;;;;5154848;27;20257;-89
2022/04/11 08:18:46;;;;;;;;;;;11.90;69.20;;;;;;5160006;27;20432;-89
2022/04/11 08:21:11;;;;;;;;;;;12.00;69.80;;;;;;5164361;27;19911;-90
2022/04/11 08:23:37;;;;;;;;;;;12.10;68.30;;;;;;5173615;27;20364;-89
2022/04/11 08:26:03;;;;;;;;;;;12.20;69.70;;;;;;5170678;27;19907;-90
2022/04/11 08:28:29;;;;;;;;;;;12.40;70.40;;;;;;5161810;27;19918;-89
2022/04/11 08:30:54;;;;;;;;;;;12.40;68.30;;;;;;5162543;27;20381;-90
2022/04/11 08:33:20;;;;;;;;;;;12.50;67.00;;;;;;5164865;27;19979;-89
2022/04/11 08:35:45;;;;;;;;;;;12.70;66.10;;;;;;5170309;27;19918;-89
2022/04/11 08:38:11;;;;;;;;;;;12.70;67.10;;;;;;5162265;27;19925;-89
2022/04/11 08:40:36;;;;;;;;;;;12.60;65.80;;;;;;5162634;27;19908;-89
2022/04/11 08:43:02;;;;;;;;;;;12.60;65.90;;;;;;5159996;27;19911;-89
2022/04/11 08:45:29;;;;;;;;;;;12.60;67.30;;;;;;5156943;27;20388;-89
2022/04/11 08:47:56;;;;;;;;;;;12.70;67.00;;;;;;5162481;27;20044;-90
2022/04/11 08:50:22;;;;;;;;;;;12.70;66.00;;;;;;5161574;27;20402;-90
2022/04/11 08:52:52;;;;;;;;;;;12.80;62.80;;;;;;5161748;27;19926;-88
2022/04/11 08:56:00;;;;;;;;;;;13.00;62.00;;;;;;5120010;27;19958;-87
2022/04/11 08:58:25;;;;;;;;;;;13.10;63.10;;;;;;5111257;28;19912;-88
2022/04/11 09:00:51;;;;;;;;;;;13.10;62.30;;;;;;5113794;28;19915;-87
2022/04/11 09:03:16;;;;;;;;;;;13.20;61.60;;;;;;5111595;28;19912;-87
2022/04/11 09:05:42;;;;;;;;;;;13.30;62.10;;;;;;5109515;28;19916;-87
2022/04/11 09:08:08;;;;;;;;;;;13.40;62.90;;;;;;5112101;28;19916;-87
2022/04/11 09:10:38;;;;;;;;;;;13.50;59.10;;;;;;5098900;28;20007;-87
2022/04/11 09:13:08;;;;;;;;;;;13.60;61.60;;;;;;5110442;28;19954;-87
2022/04/11 09:15:39;;;;;;;;;;;13.70;61.40;;;;;;5107023;28;20007;-87
2022/04/11 09:18:05;;;;;;;;;;;13.80;59.40;;;;;;5106000;28;20387;-87
2022/04/11 09:20:30;;;;;;;;;;;13.60;57.90;;;;;;5102278;28;19916;-87
2022/04/11 09:22:56;;;;;;;;;;;13.40;58.00;;;;;;5106221;28;19937;-87
2022/04/11 09:25:31;;;;;;;;;;;13.40;58.90;;;;;;5099639;28;19916;-87
2022/04/11 09:28:03;;;;;;;;;;;13.70;61.00;;;;;;5125706;28;20373;-87
2022/04/11 09:30:31;;;;;;;;;;;13.90;60.60;;;;;;5110482;28;20282;-87
2022/04/11 09:32:56;;;;;;;;;;;14.00;58.20;;;;;;5110559;28;20374;-88
2022/04/11 09:35:23;;;;;;;;;;;14.20;58.50;;;;;;5102729;28;20010;-87
2022/04/11 09:38:04;;;;;;;;;;;14.30;58.20;;;;;;5100403;28;19973;-87
2022/04/11 09:40:30;;;;;;;;;;;14.50;57.80;;;;;;5093119;28;19912;-86
2022/04/11 09:42:58;;;;;;;;;;;14.80;54.90;;;;;;5093970;28;19923;-87
2022/04/11 09:45:24;;;;;;;;;;;14.90;53.20;;;;;;5093465;28;19913;-86
2022/04/11 09:47:59;;;;;;;;;;;14.90;48.20;;;;;;5101285;28;20451;-87
2022/04/11 09:50:27;;;;;;;;;;;14.90;46.00;;;;;;5094850;28;19912;-87
2022/04/11 09:52:53;;;;;;;;;;;14.90;49.90;;;;;;5102440;28;19919;-87
2022/04/11 09:55:19;;;;;;;;;;;15.00;51.20;;;;;;5100639;28;20023;-87
2022/04/11 09:57:45;;;;;;;;;;;15.00;52.30;;;;;;5096695;28;19967;-87
2022/04/11 10:00:11;;;;;;;;;;;15.20;53.80;;;;;;5089706;28;19916;-87
2022/04/11 10:02:36;;;;;;;;;;;15.20;53.50;;;;;;5099434;28;19934;-88
2022/04/11 10:05:02;;;;;;;;;;;15.30;50.30;;;;;;5104206;28;19915;-88
2022/04/11 10:07:28;;;;;;;;;;;15.40;47.00;;;;;;5085320;28;19915;-88
2022/04/11 10:09:53;;;;;;;;;;;15.50;48.30;;;;;;5078235;28;19919;-87
2022/04/11 10:12:19;;;;;;;;;;;15.60;49.80;;;;;;5075862;28;19908;-88
2022/04/11 10:14:46;;;;;;;;;;;15.80;49.80;;;;;;5075697;28;19921;-88
2022/04/11 10:17:11;;;;;;;;;;;15.80;45.70;;;;;;5075791;28;20413;-88
2022/04/11 10:19:38;;;;;;;;;;;16.00;42.30;;;;;;5075779;28;19913;-88
2022/04/11 10:22:05;;;;;;;;;;;16.00;43.30;;;;;;5088608;28;19908;-88
2022/04/11 10:25:04;;;;;;;;;;;16.00;38.40;;;;;;5096014;28;20370;-87
2022/04/11 10:27:29;;;;;;;;;;;16.10;39.10;;;;;;5059430;28;19946;-88
2022/04/11 10:29:56;;;;;;;;;;;16.10;41.50;;;;;;5078945;28;19912;-87
2022/04/11 10:32:21;;;;;;;;;;;16.00;42.60;;;;;;5084131;28;19952;-87
2022/04/11 10:34:58;;;;;;;;;;;15.60;41.30;;;;;;5095573;28;19977;-87
2022/04/11 10:37:24;;;;;;;;;;;15.70;41.70;;;;;;5078649;28;19908;-87
2022/04/11 10:39:50;;;;;;;;;;;15.70;45.90;;;;;;5075538;28;19939;-87
2022/04/11 10:42:16;;;;;;;;;;;15.90;43.60;;;;;;5087309;28;20005;-88
2022/04/11 10:44:42;;;;;;;;;;;16.00;40.10;;;;;;5095514;28;19912;-87
2022/04/11 10:47:15;;;;;;;;;;;16.20;44.00;;;;;;5084676;28;19908;-87
2022/04/11 10:49:58;;;;;;;;;;;16.30;44.10;;;;;;5075390;28;19908;-87
2022/04/11 10:54:57;;;;;;;;;;;16.50;44.40;;;;;;5095041;28;20333;-87
2022/04/11 10:57:35;;;;;;;;;;;16.60;44.40;;;;;;5095006;28;19916;-88
2022/04/11 11:00:06;;;;;;;;;;;16.80;48.80;;;;;;5095485;28;19916;-88
2022/04/11 11:05:41;;;;;;;;;;;16.90;47.30;;;;;;5095092;28;20289;-87
2022/04/11 11:08:06;;;;;;;;;;;17.00;44.80;;;;;;5081221;28;19913;-88
2022/04/11 11:10:50;;;;;;;;;;;17.10;48.80;;;;;;5074732;28;19912;-87
2022/04/11 11:13:34;;;;;;;;;;;17.10;47.10;;;;;;5074677;28;19967;-87
2022/04/11 11:16:11;;;;;;;;;;;17.20;49.60;;;;;;5075655;28;19913;-87
2022/04/11 11:18:49;;;;;;;;;;;17.30;47.90;;;;;;5094246;28;19908;-88
2022/04/11 11:21:18;;;;;;;;;;;17.60;49.30;;;;;;5094539;28;19938;-88
2022/04/11 11:24:02;;;;;;;;;;;17.80;43.70;;;;;;5095009;28;20015;-87
2022/04/11 11:26:29;;;;;;;;;;;17.80;45.60;;;;;;5094735;28;19912;-88
2022/04/11 11:28:54;;;;;;;;;;;17.90;45.10;;;;;;5090051;28;20429;-88
2022/04/11 11:31:20;;;;;;;;;;;18.10;43.80;;;;;;5084455;28;19955;-88
2022/04/11 11:33:53;;;;;;;;;;;18.20;40.20;;;;;;5085696;28;19912;-87
2022/04/11 11:36:27;;;;;;;;;;;18.30;40.90;;;;;;5081373;28;19920;-88
2022/04/11 11:38:53;;;;;;;;;;;18.40;39.50;;;;;;5089659;28;20397;-88
2022/04/11 11:41:18;;;;;;;;;;;18.30;39.60;;;;;;5093677;28;19950;-88
2022/04/11 11:43:44;;;;;;;;;;;18.30;41.20;;;;;;5086772;28;20003;-87
2022/04/11 11:46:09;;;;;;;;;;;18.30;39.40;;;;;;5077187;28;20007;-87
2022/04/11 11:48:35;;;;;;;;;;;18.00;39.20;;;;;;5073647;28;19908;-88
2022/04/11 11:51:01;;;;;;;;;;;18.10;37.70;;;;;;5079872;28;20309;-87
2022/04/11 11:53:40;;;;;;;;;;;18.30;39.70;;;;;;5077003;28;19912;-88
2022/04/11 11:56:08;;;;;;;;;;;18.60;36.40;;;;;;5084254;28;19920;-87
2022/04/11 11:58:35;;;;;;;;;;;19.10;35.60;;;;;;5080446;28;20003;-88
2022/04/11 12:01:00;;;;;;;;;;;19.60;37.20;;;;;;5079973;28;19912;-88
2022/04/11 12:06:10;;;;;;;;;;;19.90;39.00;;;;;;5078419;28;19919;-88
2022/04/11 12:08:36;;;;;;;;;;;20.20;34.90;;;;;;5085092;28;20285;-88
2022/04/11 12:11:02;;;;;;;;;;;20.30;33.50;;;;;;5080910;28;19914;-88
2022/04/11 12:13:27;;;;;;;;;;;20.80;32.50;;;;;;5073624;28;20010;-88
2022/04/11 12:15:53;;;;;;;;;;;21.10;32.70;;;;;;5081559;28;19915;-88
2022/04/11 12:18:20;;;;;;;;;;;21.50;32.30;;;;;;5092671;28;19920;-88
2022/04/11 12:20:47;;;;;;;;;;;21.70;29.90;;;;;;5073427;28;19912;-88
2022/04/11 12:23:14;;;;;;;;;;;21.30;32.60;;;;;;5082583;28;19916;-87
2022/04/11 12:25:48;;;;;;;;;;;21.00;30.20;;;;;;5089447;28;19919;-88
2022/04/11 12:28:18;;;;;;;;;;;20.80;34.10;;;;;;5088965;28;19920;-87
2022/04/11 12:31:02;;;;;;;;;;;20.80;32.70;;;;;;5087887;28;19919;-88
2022/04/11 12:33:30;;;;;;;;;;;20.90;32.90;;;;;;5085928;28;19935;-88
2022/04/11 12:36:15;;;;;;;;;;;21.80;32.80;;;;;;5095217;28;19965;-88
2022/04/11 12:38:58;;;;;;;;;;;22.60;29.50;;;;;;5083140;28;20255;-88
2022/04/11 12:41:23;;;;;;;;;;;23.30;30.50;;;;;;5081265;28;19966;-88
2022/04/11 12:44:02;;;;;;;;;;;24.30;29.20;;;;;;5085839;28;19916;-88
2022/04/11 12:46:28;;;;;;;;;;;24.80;28.20;;;;;;5090235;28;19912;-88
2022/04/11 12:48:54;;;;;;;;;;;25.90;27.30;;;;;;5087574;28;20331;-88
2022/04/11 12:51:20;;;;;;;;;;;26.30;24.60;;;;;;5076430;28;19913;-88
2022/04/11 12:53:46;;;;;;;;;;;26.50;26.10;;;;;;5075144;28;19913;-88
2022/04/11 12:56:11;;;;;;;;;;;26.90;26.40;;;;;;5090316;28;19928;-88
2022/04/11 12:58:37;;;;;;;;;;;27.00;25.60;;;;;;5074105;28;19912;-88
2022/04/11 13:01:02;;;;;;;;;;;27.00;26.80;;;;;;5088352;28;19922;-88
2022/04/11 13:03:30;;;;;;;;;;;26.80;26.30;;;;;;5084941;28;19948;-88
2022/04/11 13:05:57;;;;;;;;;;;26.40;25.40;;;;;;5086448;28;19919;-88
2022/04/11 13:08:26;;;;;;;;;;;26.00;26.60;;;;;;5089870;28;20007;-88
2022/04/11 13:10:51;;;;;;;;;;;25.80;25.60;;;;;;5078734;28;19916;-88
2022/04/11 13:13:17;;;;;;;;;;;26.20;25.50;;;;;;5090683;28;20003;-88
2022/04/11 13:18:27;;;;;;;;;;;26.60;26.40;;;;;;5078122;28;19927;-89
2022/04/11 13:20:53;;;;;;;;;;;27.80;26.20;;;;;;5086855;28;19916;-88
2022/04/11 13:23:19;;;;;;;;;;;29.10;21.10;;;;;;5076394;28;19912;-88
2022/04/11 13:25:45;;;;;;;;;;;29.30;22.00;;;;;;5083846;28;19912;-89
2022/04/11 13:28:10;;;;;;;;;;;30.00;22.50;;;;;;5076236;28;19927;-89
2022/04/11 13:30:36;;;;;;;;;;;30.00;20.10;;;;;;5076930;28;20059;-89
2022/04/11 13:33:02;;;;;;;;;;;30.20;22.20;;;;;;5092880;28;19919;-89
2022/04/11 13:35:28;;;;;;;;;;;29.20;22.60;;;;;;5086599;28;21060;-88
2022/04/11 13:37:53;;;;;;;;;;;28.80;23.40;;;;;;5083112;28;20290;-88
2022/04/11 13:40:19;;;;;;;;;;;28.00;24.10;;;;;;5086971;28;19916;-88
2022/04/11 13:42:45;;;;;;;;;;;27.70;24.20;;;;;;5096269;28;19951;-88
2022/04/11 13:45:10;;;;;;;;;;;27.20;23.00;;;;;;5090438;28;19913;-87
2022/04/11 13:47:36;;;;;;;;;;;26.80;25.00;;;;;;5091328;28;19912;-88
2022/04/11 13:50:01;;;;;;;;;;;27.30;24.00;;;;;;5095708;28;19911;-88
2022/04/11 13:52:27;;;;;;;;;;;27.00;25.20;;;;;;5083882;28;19912;-88
2022/04/11 13:54:53;;;;;;;;;;;27.70;23.60;;;;;;5077134;28;19925;-88
2022/04/11 13:57:18;;;;;;;;;;;28.20;24.00;;;;;;5091829;28;19989;-89
2022/04/11 13:59:44;;;;;;;;;;;28.20;26.20;;;;;;5101710;28;19919;-89
2022/04/11 14:02:10;;;;;;;;;;;28.70;24.10;;;;;;5105605;28;19983;-89
2022/04/11 14:04:36;;;;;;;;;;;29.50;22.90;;;;;;5087370;28;20365;-88
2022/04/11 14:07:02;;;;;;;;;;;29.40;22.50;;;;;;5080905;28;19941;-89
2022/04/11 14:09:27;;;;;;;;;;;29.20;22.60;;;;;;5083750;28;20361;-88
2022/04/11 14:11:53;;;;;;;;;;;28.60;23.10;;;;;;5088547;28;19955;-88
2022/04/11 14:14:18;;;;;;;;;;;28.80;22.50;;;;;;5108225;28;19916;-89
2022/04/11 14:16:44;;;;;;;;;;;29.30;23.30;;;;;;5087948;28;19958;-89
2022/04/11 14:19:09;;;;;;;;;;;29.00;23.70;;;;;;5086689;28;19981;-88
2022/04/11 14:21:35;;;;;;;;;;;29.00;24.10;;;;;;5079165;28;19913;-89
2022/04/11 14:24:01;;;;;;;;;;;28.70;23.10;;;;;;5080586;28;19932;-88
2022/04/11 14:26:26;;;;;;;;;;;28.50;23.50;;;;;;5080156;28;20338;-89
2022/04/11 14:28:52;;;;;;;;;;;28.70;24.80;;;;;;5095267;28;20446;-89
2022/04/11 14:31:17;;;;;;;;;;;29.20;23.60;;;;;;5092756;28;19912;-89
2022/04/11 14:33:43;;;;;;;;;;;29.30;22.80;;;;;;5091579;28;20012;-88
2022/04/11 14:36:09;;;;;;;;;;;29.10;22.40;;;;;;5085328;28;19963;-88
2022/04/11 14:38:37;;;;;;;;;;;28.30;22.30;;;;;;5095626;28;19912;-88
2022/04/11 14:41:03;;;;;;;;;;;28.60;22.90;;;;;;5091047;28;19912;-89
2022/04/11 14:43:28;;;;;;;;;;;28.80;23.50;;;;;;5094874;28;19920;-89
2022/04/11 14:45:54;;;;;;;;;;;29.40;23.00;;;;;;5077929;28;19908;-89
2022/04/11 14:48:20;;;;;;;;;;;30.50;22.70;;;;;;5090420;28;20358;-89
2022/04/11 14:50:45;;;;;;;;;;;31.30;22.00;;;;;;5083779;28;19909;-89
2022/04/11 14:53:11;;;;;;;;;;;31.70;21.40;;;;;;5076295;28;19966;-90
2022/04/11 14:55:37;;;;;;;;;;;31.20;20.40;;;;;;5084861;28;19925;-89
2022/04/11 14:58:03;;;;;;;;;;;31.80;19.60;;;;;;5093036;28;19963;-89
2022/04/11 15:00:29;;;;;;;;;;;32.90;17.90;;;;;;5079641;28;19913;-89
2022/04/11 15:02:55;;;;;;;;;;;32.90;17.90;;;;;;5089305;28;19919;-89
2022/04/11 15:05:20;;;;;;;;;;;31.70;18.80;;;;;;5076600;28;19912;-89
2022/04/11 15:07:46;;;;;;;;;;;30.80;21.10;;;;;;5083724;28;19916;-88
2022/04/11 15:10:15;;;;;;;;;;;30.10;21.30;;;;;;5082911;28;19917;-89
2022/04/11 15:12:41;;;;;;;;;;;29.70;22.50;;;;;;5098076;28;19912;-89
2022/04/11 15:15:07;;;;;;;;;;;29.00;23.40;;;;;;5092784;28;19912;-89
2022/04/11 15:17:32;;;;;;;;;;;28.70;23.30;;;;;;5089063;28;20057;-89
2022/04/11 15:19:58;;;;;;;;;;;30.10;23.20;;;;;;5083630;28;20366;-89
2022/04/11 15:22:29;;;;;;;;;;;31.00;20.10;;;;;;5094239;28;20017;-89
2022/04/11 15:24:59;;;;;;;;;;;31.10;20.60;;;;;;5090547;28;19969;-89
2022/04/11 15:27:25;;;;;;;;;;;29.70;21.10;;;;;;5085675;28;19930;-89
2022/04/11 15:29:51;;;;;;;;;;;29.90;21.70;;;;;;5095391;28;19915;-89
2022/04/11 15:32:17;;;;;;;;;;;29.90;22.30;;;;;;5098355;28;19957;-89
2022/04/11 15:34:43;;;;;;;;;;;30.80;22.40;;;;;;5101891;28;19920;-89
2022/04/11 15:37:09;;;;;;;;;;;31.20;20.20;;;;;;5104662;28;19918;-89
2022/04/11 15:39:34;;;;;;;;;;;32.00;19.20;;;;;;5091618;28;20320;-89
2022/04/11 15:42:00;;;;;;;;;;;32.10;19.60;;;;;;5084738;28;19912;-89
2022/04/11 15:44:26;;;;;;;;;;;32.00;19.30;;;;;;5085550;28;19977;-89
2022/04/11 15:46:52;;;;;;;;;;;31.50;19.30;;;;;;5081257;28;19913;-89
2022/04/11 15:49:17;;;;;;;;;;;30.20;22.10;;;;;;5087854;28;19919;-89
2022/04/11 15:51:43;;;;;;;;;;;30.10;22.50;;;;;;5079907;28;19962;-89
2022/04/11 15:54:09;;;;;;;;;;;28.70;24.20;;;;;;5076191;28;19932;-88
2022/04/11 15:56:35;;;;;;;;;;;28.80;23.30;;;;;;5082843;28;19916;-89
2022/04/11 15:59:01;;;;;;;;;;;28.70;24.50;;;;;;5079721;28;19919;-89
2022/04/11 16:01:27;;;;;;;;;;;28.10;25.10;;;;;;5085271;28;19916;-89
2022/04/11 16:03:52;;;;;;;;;;;28.70;24.50;;;;;;5102718;28;20061;-88
2022/04/11 16:06:18;;;;;;;;;;;28.20;24.20;;;;;;5076008;28;19935;-90
2022/04/11 16:08:43;;;;;;;;;;;27.60;25.40;;;;;;5088748;28;19911;-89
2022/04/11 16:11:09;;;;;;;;;;;26.70;27.00;;;;;;5086276;28;19966;-89
2022/04/11 16:13:35;;;;;;;;;;;26.40;27.50;;;;;;5084636;28;20317;-89
2022/04/11 16:16:01;;;;;;;;;;;26.10;27.70;;;;;;5078099;28;19919;-89
2022/04/11 16:18:26;;;;;;;;;;;25.50;27.70;;;;;;5078839;28;19916;-88
2022/04/11 16:20:52;;;;;;;;;;;24.90;29.40;;;;;;5075448;28;19912;-89
2022/04/11 16:23:17;;;;;;;;;;;24.40;29.10;;;;;;5077101;28;19912;-89
2022/04/11 16:25:43;;;;;;;;;;;24.00;29.40;;;;;;5094948;28;20328;-89
2022/04/11 16:28:09;;;;;;;;;;;23.40;30.50;;;;;;5098263;28;19915;-88
2022/04/11 16:30:35;;;;;;;;;;;22.70;32.10;;;;;;5097140;28;19916;-89
2022/04/11 16:33:00;;;;;;;;;;;21.90;34.00;;;;;;5073762;28;20110;-88
2022/04/11 16:35:26;;;;;;;;;;;21.20;35.20;;;;;;5090393;28;19968;-88
2022/04/11 16:37:52;;;;;;;;;;;20.50;36.40;;;;;;5092504;28;19911;-88
2022/04/11 16:40:19;;;;;;;;;;;19.60;37.20;;;;;;5093392;28;19918;-88
2022/04/11 16:45:13;;;;;;;;;;;18.80;38.70;;;;;;5092011;27;20389;-88
2022/04/11 16:49:03;;;;;;;;;;;17.90;41.40;;;;;;5108479;27;19930;-88
2022/04/11 16:51:29;;;;;;;;;;;18.20;42.00;;;;;;5116345;27;19921;-89
2022/04/11 16:53:55;;;;;;;;;;;18.40;41.40;;;;;;5090440;28;19962;-88
2022/04/11 16:56:20;;;;;;;;;;;18.40;41.30;;;;;;5090218;28;19912;-88
2022/04/11 16:58:46;;;;;;;;;;;18.30;41.80;;;;;;5090094;28;20374;-88
2022/04/11 17:01:11;;;;;;;;;;;18.40;41.40;;;;;;5089802;28;19963;-88
2022/04/11 17:03:38;;;;;;;;;;;18.30;41.10;;;;;;5089857;28;19954;-89
2022/04/11 17:06:05;;;;;;;;;;;18.20;42.30;;;;;;5090334;28;19933;-88
2022/04/11 17:08:30;;;;;;;;;;;18.00;42.00;;;;;;5089006;28;19966;-90
2022/04/11 17:10:56;;;;;;;;;;;17.90;42.00;;;;;;5090102;28;19908;-89
2022/04/11 17:13:21;;;;;;;;;;;17.80;42.60;;;;;;5090589;28;19936;-89
2022/04/11 17:18:31;;;;;;;;;;;17.40;42.50;;;;;;5090175;28;19941;-88
2022/04/11 17:22:47;;;;;;;;;;;17.10;43.50;;;;;;5070534;28;20070;-88
2022/04/11 17:25:13;;;;;;;;;;;16.40;45.20;;;;;;5070614;28;19920;-88
2022/04/11 17:27:39;;;;;;;;;;;15.90;46.30;;;;;;5070585;28;19909;-88
2022/04/11 17:30:05;;;;;;;;;;;15.40;47.60;;;;;;5070320;28;20329;-88
2022/04/11 17:32:30;;;;;;;;;;;15.10;48.90;;;;;;5069924;28;19909;-88
2022/04/11 17:34:56;;;;;;;;;;;15.10;49.30;;;;;;5070296;28;20000;-89
2022/04/11 17:37:21;;;;;;;;;;;15.10;48.90;;;;;;5070217;28;20358;-88
2022/04/11 17:39:47;;;;;;;;;;;15.10;49.50;;;;;;5070207;28;19909;-89
2022/04/11 17:42:12;;;;;;;;;;;15.10;49.20;;;;;;5070026;28;19966;-89
2022/04/11 17:44:38;;;;;;;;;;;14.90;49.00;;;;;;5070097;28;20363;-88
2022/04/11 17:47:04;;;;;;;;;;;14.90;49.90;;;;;;5069926;28;19909;-88
2022/04/11 17:49:29;;;;;;;;;;;14.80;51.00;;;;;;5069791;28;19920;-88
2022/04/11 17:51:55;;;;;;;;;;;14.60;51.40;;;;;;5070043;28;19951;-89
2022/04/11 17:55:34;;;;;;;;;;;14.50;51.50;;;;;;5097550;27;2146695;-89
2022/04/11 17:58:00;;;;;;;;;;;14.40;51.60;;;;;;5173044;27;19911;-89
2022/04/11 18:00:26;;;;;;;;;;;14.30;51.50;;;;;;5173054;27;19907;-88
2022/04/11 18:02:51;;;;;;;;;;;14.20;51.30;;;;;;5173169;27;19910;-88
2022/04/11 18:05:17;;;;;;;;;;;14.20;52.60;;;;;;5172914;27;20009;-88
2022/04/11 18:07:42;;;;;;;;;;;14.10;52.50;;;;;;5172762;27;20005;-88
2022/04/11 18:10:08;;;;;;;;;;;14.20;52.80;;;;;;5157153;27;19908;-88
2022/04/11 18:12:35;;;;;;;;;;;14.10;53.90;;;;;;5151899;27;19907;-88
2022/04/11 18:15:04;;;;;;;;;;;14.10;53.90;;;;;;5133167;27;20292;-88
2022/04/11 18:17:30;;;;;;;;;;;14.00;54.60;;;;;;5151805;27;19907;-88
2022/04/11 18:19:56;;;;;;;;;;;13.90;55.60;;;;;;5151517;27;19907;-88
2022/04/11 18:22:21;;;;;;;;;;;13.90;57.00;;;;;;5151987;27;20386;-89
2022/04/11 18:24:47;;;;;;;;;;;13.80;57.60;;;;;;5151619;27;19911;-89
2022/04/11 18:27:13;;;;;;;;;;;13.80;58.20;;;;;;5151625;27;19932;-88
2022/04/11 18:32:22;;;;;;;;;;;13.80;59.50;;;;;;5151714;27;19948;-88
2022/04/11 18:35:27;;;;;;;;;;;13.70;60.10;;;;;;5111666;27;19918;-89
2022/04/11 18:37:58;;;;;;;;;;;13.50;60.70;;;;;;5110985;28;19912;-89